createdAt,value
2018-01-26T00:00:50.945Z,0.95
2018-01-26T00:03:18.603Z,0.90
2018-01-26T00:05:46.218Z,1.02
2018-01-26T00:08:13.822Z,1.03
2018-01-26T00:10:41.386Z,0.97
2018-01-26T00:13:09.345Z,0.92
2018-01-26T00:15:36.964Z,0.83
2018-01-26T00:18:04.717Z,0.78
2018-01-26T00:20:32.337Z,0.98
2018-01-26T00:22:59.969Z,0.92
2018-01-26T00:25:27.536Z,0.82
2018-01-26T00:27:55.132Z,0.78
2018-01-26T00:30:22.730Z,0.69
2018-01-26T00:32:50.280Z,0.71
2018-01-26T00:35:17.872Z,0.69
2018-01-26T00:37:45.503Z,0.86
2018-01-26T00:40:13.095Z,1.01
2018-01-26T00:42:40.670Z,1.08
2018-01-26T00:45:08.666Z,1.07
2018-01-26T00:47:36.371Z,1.10
2018-01-26T00:50:03.972Z,1.19
2018-01-26T00:52:31.549Z,1.25
2018-01-26T00:54:59.122Z,1.28
2018-01-26T00:57:26.711Z,1.31
2018-01-26T00:59:54.278Z,1.23
2018-01-26T01:02:21.825Z,1.23
2018-01-26T01:04:49.424Z,1.17
2018-01-26T01:07:19.780Z,1.16
2018-01-26T01:09:47.370Z,1.23
2018-01-26T01:12:14.958Z,1.12
2018-01-26T01:14:42.531Z,1.06
2018-01-26T01:17:12.041Z,1.05
2018-01-26T01:19:39.681Z,1.02
2018-01-26T01:22:07.252Z,1.03
2018-01-26T01:24:34.810Z,1.03
2018-01-26T01:27:02.653Z,1.09
2018-01-26T01:29:30.237Z,1.18
2018-01-26T01:31:57.903Z,1.16
2018-01-26T01:34:25.831Z,1.15
2018-01-26T01:36:53.390Z,1.15
2018-01-26T01:39:20.999Z,1.14
2018-01-26T01:41:48.632Z,1.15
2018-01-26T01:44:16.173Z,1.16
2018-01-26T01:46:43.744Z,1.21
2018-01-26T01:49:19.313Z,1.18
2018-01-26T01:51:47.071Z,1.16
2018-01-26T01:54:14.643Z,1.13
2018-01-26T01:56:42.292Z,1.14
2018-01-26T01:59:09.836Z,1.02
2018-01-26T02:01:37.435Z,1.07
2018-01-26T02:04:05.071Z,1.00
2018-01-26T02:06:32.713Z,0.85
2018-01-26T02:09:00.483Z,0.82
2018-01-26T02:11:28.352Z,0.93
2018-01-26T02:13:55.923Z,0.98
2018-01-26T02:16:23.703Z,0.87
2018-01-26T02:18:51.334Z,0.84
2018-01-26T02:21:18.939Z,0.75
2018-01-26T02:23:46.519Z,0.76
2018-01-26T02:26:14.185Z,0.78
2018-01-26T02:28:41.758Z,0.68
2018-01-26T02:31:09.349Z,0.59
2018-01-26T02:33:36.987Z,0.55
2018-01-26T02:36:04.809Z,0.57
2018-01-26T02:38:32.380Z,0.73
2018-01-26T02:41:00.013Z,0.88
2018-01-26T02:43:28.199Z,1.03
2018-01-26T02:45:55.760Z,0.99
2018-01-26T02:48:23.599Z,0.77
2018-01-26T02:50:51.930Z,0.60
2018-01-26T02:53:20.311Z,0.54
2018-01-26T02:55:48.504Z,0.47
2018-01-26T02:58:16.086Z,0.47
2018-01-26T03:00:43.692Z,0.45
2018-01-26T03:03:13.735Z,0.43
2018-01-26T03:05:41.393Z,0.48
2018-01-26T03:08:10.126Z,0.58
2018-01-26T03:10:37.732Z,0.75
2018-01-26T03:13:07.129Z,0.89
2018-01-26T03:15:34.756Z,0.92
2018-01-26T03:18:04.652Z,0.72
2018-01-26T03:20:32.232Z,0.63
2018-01-26T03:23:00.198Z,0.50
2018-01-26T03:25:28.141Z,0.38
2018-01-26T03:27:55.766Z,0.33
2018-01-26T03:30:23.388Z,0.28
2018-01-26T03:32:53.194Z,0.42
2018-01-26T03:35:20.958Z,0.61
2018-01-26T03:37:48.636Z,0.77
2018-01-26T03:40:18.439Z,0.86
2018-01-26T03:42:48.106Z,0.95
2018-01-26T03:45:16.051Z,1.00
2018-01-26T03:47:43.739Z,0.98
2018-01-26T03:50:11.329Z,0.99
2018-01-26T03:52:40.693Z,0.93
2018-01-26T03:55:08.411Z,1.00
2018-01-26T03:57:36.799Z,1.01
2018-01-26T04:00:06.092Z,0.84
2018-01-26T04:02:33.819Z,0.97
2018-01-26T04:05:01.469Z,1.07
2018-01-26T04:07:29.243Z,1.13
2018-01-26T04:09:56.828Z,1.08
2018-01-26T04:12:24.521Z,1.00
2018-01-26T04:14:52.107Z,1.03
2018-01-26T04:17:19.793Z,0.96
2018-01-26T04:19:47.545Z,0.99
2018-01-26T04:22:15.214Z,1.01
2018-01-26T04:24:42.844Z,1.02
2018-01-26T04:27:11.069Z,1.04
2018-01-26T04:29:38.713Z,1.07
2018-01-26T04:32:06.287Z,0.88
2018-01-26T04:34:33.840Z,0.95
2018-01-26T04:37:01.425Z,1.06
2018-01-26T04:39:29.032Z,0.98
2018-01-26T04:41:56.617Z,0.87
2018-01-26T04:44:24.173Z,0.72
2018-01-26T04:46:51.756Z,0.79
2018-01-26T04:49:19.359Z,0.90
2018-01-26T04:51:46.955Z,0.97
2018-01-26T04:54:14.701Z,0.92
2018-01-26T04:56:42.271Z,0.87
2018-01-26T04:59:09.946Z,0.98
2018-01-26T05:01:38.421Z,1.05
2018-01-26T05:04:06.368Z,1.08
2018-01-26T05:06:34.668Z,1.09
2018-01-26T05:09:02.432Z,1.18
2018-01-26T05:11:31.296Z,1.11
2018-01-26T05:13:59.268Z,1.03
2018-01-26T05:16:28.073Z,0.90
2018-01-26T05:18:56.125Z,0.91
2018-01-26T05:21:23.781Z,0.97
2018-01-26T05:23:51.682Z,0.72
2018-01-26T05:26:19.534Z,0.57
2018-01-26T05:28:47.440Z,0.49
2018-01-26T05:31:15.036Z,0.44
2018-01-26T05:33:42.645Z,0.55
2018-01-26T05:36:10.280Z,0.58
2018-01-26T05:38:37.879Z,0.59
2018-01-26T05:41:05.490Z,0.50
2018-01-26T05:43:33.140Z,0.42
2018-01-26T05:46:00.778Z,0.42
2018-01-26T05:48:28.327Z,0.39
2018-01-26T05:50:55.936Z,0.35
2018-01-26T05:53:23.500Z,0.35
2018-01-26T05:55:51.045Z,0.46
2018-01-26T05:58:19.548Z,0.52
2018-01-26T06:00:47.255Z,0.68
2018-01-26T06:03:14.858Z,0.79
2018-01-26T06:05:42.427Z,0.87
2018-01-26T06:08:10.233Z,0.93
2018-01-26T06:10:37.834Z,0.92
2018-01-26T06:13:05.637Z,0.89
2018-01-26T06:15:33.235Z,0.66
2018-01-26T06:18:00.859Z,0.67
2018-01-26T06:20:28.836Z,0.79
2018-01-26T06:22:56.417Z,0.85
2018-01-26T06:25:24.294Z,0.96
2018-01-26T06:27:51.910Z,0.98
2018-01-26T06:30:19.552Z,0.98
2018-01-26T06:32:47.156Z,0.96
2018-01-26T06:35:14.795Z,0.95
2018-01-26T06:37:42.343Z,0.90
2018-01-26T06:40:09.913Z,0.89
2018-01-26T06:42:37.503Z,0.82
2018-01-26T06:45:05.642Z,0.66
2018-01-26T06:47:33.517Z,0.76
2018-01-26T06:50:01.069Z,0.82
2018-01-26T06:52:28.643Z,0.85
2018-01-26T06:54:56.256Z,0.88
2018-01-26T06:57:23.805Z,0.85
2018-01-26T06:59:51.377Z,0.81
2018-01-26T07:02:20.347Z,0.89
2018-01-26T07:04:48.294Z,0.98
2018-01-26T07:07:15.850Z,1.00
2018-01-26T07:09:43.421Z,1.00
2018-01-26T07:12:10.978Z,1.02
2018-01-26T07:14:38.613Z,1.00
2018-01-26T07:17:06.323Z,0.96
2018-01-26T07:19:33.930Z,1.01
2018-01-26T07:22:01.517Z,1.04
2018-01-26T07:24:29.081Z,1.02
2018-01-26T07:26:56.642Z,1.01
2018-01-26T07:29:24.243Z,0.82
2018-01-26T07:31:51.841Z,0.87
2018-01-26T07:34:19.401Z,0.98
2018-01-26T07:36:46.955Z,1.01
2018-01-26T07:39:14.614Z,1.07
2018-01-26T07:41:44.025Z,1.15
2018-01-26T07:44:11.686Z,1.18
2018-01-26T07:46:39.320Z,1.18
2018-01-26T07:49:07.020Z,1.10
2018-01-26T07:51:34.862Z,0.84
2018-01-26T07:54:05.108Z,0.81
2018-01-26T07:56:32.899Z,0.93
2018-01-26T07:59:00.471Z,0.79
2018-01-26T08:01:28.052Z,0.94
2018-01-26T08:03:55.607Z,1.09
2018-01-26T08:06:23.608Z,1.26
2018-01-26T08:08:51.480Z,1.45
2018-01-26T08:11:19.085Z,1.63
2018-01-26T08:13:46.654Z,1.63
2018-01-26T08:16:14.256Z,1.61
2018-01-26T08:18:41.827Z,1.69
2018-01-26T08:21:09.801Z,1.76
2018-01-26T08:23:37.563Z,1.71
2018-01-26T08:26:05.120Z,1.84
2018-01-26T08:28:32.676Z,1.79
2018-01-26T08:31:00.261Z,1.55
2018-01-26T08:33:27.874Z,1.59
2018-01-26T08:35:55.550Z,1.27
2018-01-26T08:38:24.262Z,1.16
2018-01-26T08:40:51.797Z,1.04
2018-01-26T08:43:19.374Z,1.39
2018-01-26T08:45:47.011Z,1.41
2018-01-26T08:48:14.657Z,1.64
2018-01-26T08:50:42.255Z,1.91
2018-01-26T08:53:09.878Z,1.77
2018-01-26T08:55:37.892Z,1.47
2018-01-26T08:58:05.444Z,1.38
2018-01-26T09:00:33.043Z,1.55
2018-01-26T09:03:00.614Z,1.72
2018-01-26T09:05:28.212Z,1.89
2018-01-26T09:07:55.799Z,2.14
2018-01-26T09:10:23.372Z,2.03
2018-01-26T09:12:50.963Z,1.91
2018-01-26T09:15:18.772Z,1.86
2018-01-26T09:17:46.317Z,2.21
2018-01-26T09:20:13.974Z,2.37
2018-01-26T09:22:41.562Z,2.70
2018-01-26T09:25:09.467Z,2.84
2018-01-26T09:27:37.033Z,2.82
2018-01-26T09:30:04.676Z,2.52
2018-01-26T09:32:32.253Z,2.60
2018-01-26T09:34:59.838Z,2.74
2018-01-26T09:37:27.431Z,2.72
2018-01-26T09:39:54.985Z,2.71
2018-01-26T09:42:23.231Z,2.90
2018-01-26T09:44:50.815Z,2.48
2018-01-26T09:47:18.395Z,2.24
2018-01-26T09:49:45.958Z,2.52
2018-01-26T09:52:13.574Z,2.67
2018-01-26T09:54:41.120Z,2.54
2018-01-26T09:57:08.788Z,2.85
2018-01-26T09:59:36.345Z,3.26
2018-01-26T10:02:03.897Z,3.65
2018-01-26T10:04:31.474Z,3.81
2018-01-26T10:06:59.051Z,3.85
2018-01-26T10:09:26.591Z,3.80
2018-01-26T10:11:54.182Z,3.60
2018-01-26T10:14:21.796Z,3.68
2018-01-26T10:16:49.348Z,4.04
2018-01-26T10:19:16.914Z,4.28
2018-01-26T10:21:44.501Z,4.02
2018-01-26T10:24:12.037Z,4.32
2018-01-26T10:26:39.657Z,4.11
2018-01-26T10:29:07.393Z,4.35
2018-01-26T10:31:34.965Z,4.00
2018-01-26T10:34:02.686Z,3.60
2018-01-26T10:36:30.244Z,3.79
2018-01-26T10:38:57.834Z,4.10
2018-01-26T10:44:16.177Z,4.03
2018-01-26T10:46:43.717Z,4.21
2018-01-26T10:49:11.837Z,3.95
2018-01-26T10:51:39.453Z,3.88
2018-01-26T10:54:07.016Z,3.85
2018-01-26T10:56:34.564Z,4.40
2018-01-26T10:59:02.141Z,4.54
2018-01-26T11:01:29.712Z,4.86
2018-01-26T11:03:57.698Z,4.84
2018-01-26T11:06:26.195Z,4.58
2018-01-26T11:08:57.535Z,4.77
2018-01-26T11:11:25.145Z,4.76
2018-01-26T11:13:52.864Z,4.91
2018-01-26T11:16:20.501Z,4.95
2018-01-26T11:18:48.061Z,4.95
2018-01-26T11:21:16.420Z,4.72
2018-01-26T11:23:44.014Z,4.93
2018-01-26T11:26:11.595Z,4.77
2018-01-26T11:28:39.220Z,4.60
2018-01-26T11:31:06.906Z,4.35
2018-01-26T11:33:34.473Z,4.66
2018-01-26T11:36:03.921Z,4.87
2018-01-26T11:38:31.502Z,5.09
2018-01-26T11:40:59.057Z,5.27
2018-01-26T11:43:26.711Z,5.27
2018-01-26T11:45:54.572Z,5.48
2018-01-26T11:48:22.130Z,5.42
2018-01-26T11:50:49.697Z,5.31
2018-01-26T11:53:17.292Z,5.28
2018-01-26T11:55:44.856Z,5.48
2018-01-26T11:58:12.434Z,5.48
2018-01-26T12:00:40.947Z,5.64
2018-01-26T12:03:09.630Z,5.78
2018-01-26T12:05:37.202Z,5.66
2018-01-26T12:08:04.796Z,5.61
2018-01-26T12:10:32.377Z,5.51
2018-01-26T12:12:59.964Z,5.70
2018-01-26T12:15:27.809Z,5.77
2018-01-26T12:17:55.372Z,5.73
2018-01-26T12:20:22.946Z,5.53
2018-01-26T12:22:50.588Z,5.54
2018-01-26T12:25:18.180Z,5.65
2018-01-26T12:27:45.779Z,5.90
2018-01-26T12:30:13.440Z,6.03
2018-01-26T12:32:41.043Z,5.96
2018-01-26T12:35:08.712Z,5.95
2018-01-26T12:37:36.985Z,6.01
2018-01-26T12:40:04.583Z,6.16
2018-01-26T12:42:32.116Z,5.96
2018-01-26T12:44:59.698Z,5.95
2018-01-26T12:47:27.498Z,5.85
2018-01-26T12:49:55.091Z,6.06
2018-01-26T12:52:23.493Z,5.92
2018-01-26T12:54:51.048Z,6.17
2018-01-26T12:57:18.698Z,6.16
2018-01-26T12:59:46.262Z,6.25
2018-01-26T13:02:14.020Z,6.51
2018-01-26T13:04:41.620Z,6.88
2018-01-26T13:07:09.901Z,6.87
2018-01-26T13:09:37.469Z,6.54
2018-01-26T13:12:05.298Z,6.96
2018-01-26T13:14:32.855Z,7.06
2018-01-26T13:17:00.431Z,6.42
2018-01-26T13:19:28.042Z,6.15
2018-01-26T13:21:55.642Z,6.12
2018-01-26T13:24:23.260Z,6.34
2018-01-26T13:26:50.860Z,5.70
2018-01-26T13:29:19.212Z,5.84
2018-01-26T13:31:46.893Z,6.06
2018-01-26T13:34:15.085Z,6.11
2018-01-26T13:36:42.662Z,5.94
2018-01-26T13:39:10.965Z,6.00
2018-01-26T13:41:38.590Z,5.70
2018-01-26T13:44:06.136Z,5.57
2018-01-26T13:46:33.778Z,5.92
2018-01-26T13:49:01.547Z,6.08
2018-01-26T13:51:29.117Z,6.16
2018-01-26T13:53:56.780Z,5.93
2018-01-26T13:56:25.144Z,6.05
2018-01-26T13:58:52.715Z,6.17
2018-01-26T14:01:20.441Z,6.30
2018-01-26T14:03:48.079Z,6.49
2018-01-26T14:06:15.637Z,6.47
2018-01-26T14:08:43.223Z,6.54
2018-01-26T14:11:11.197Z,6.49
2018-01-26T14:13:38.765Z,6.42
2018-01-26T14:16:06.318Z,6.10
2018-01-26T14:18:34.019Z,5.76
2018-01-26T14:21:01.469Z,5.46
2018-01-26T14:23:29.017Z,5.21
2018-01-26T14:25:56.612Z,5.17
2018-01-26T14:28:24.325Z,5.19
2018-01-26T14:30:51.854Z,5.19
2018-01-26T14:33:19.407Z,5.18
2018-01-26T14:35:46.945Z,5.30
2018-01-26T14:38:14.524Z,5.65
2018-01-26T14:40:42.108Z,5.95
2018-01-26T14:43:09.819Z,5.79
2018-01-26T14:45:37.373Z,5.43
2018-01-26T14:48:04.959Z,5.15
2018-01-26T14:50:32.548Z,5.06
2018-01-26T14:53:00.104Z,4.90
2018-01-26T14:55:28.271Z,4.70
2018-01-26T14:57:55.832Z,4.69
2018-01-26T15:00:23.385Z,4.48
2018-01-26T15:02:50.923Z,4.24
2018-01-26T15:05:18.930Z,4.12
2018-01-26T15:07:46.510Z,3.97
2018-01-26T15:10:14.084Z,3.84
2018-01-26T15:12:41.663Z,3.74
2018-01-26T15:15:09.567Z,3.59
2018-01-26T15:17:37.726Z,3.51
2018-01-26T15:20:05.270Z,3.43
2018-01-26T15:22:32.871Z,3.30
2018-01-26T15:25:00.463Z,3.18
2018-01-26T15:27:28.276Z,2.97
2018-01-26T15:29:56.188Z,2.85
2018-01-26T15:32:23.767Z,2.72
2018-01-26T15:34:53.155Z,2.59
2018-01-26T15:37:23.302Z,2.47
2018-01-26T15:39:50.916Z,2.37
2018-01-26T15:42:18.454Z,2.31
2018-01-26T15:44:46.040Z,2.23
2018-01-26T15:47:13.793Z,2.11
2018-01-26T15:49:42.144Z,1.98
2018-01-26T15:52:09.728Z,1.89
2018-01-26T15:54:37.304Z,1.78
2018-01-26T15:57:04.922Z,1.64
2018-01-26T15:59:32.472Z,1.54
2018-01-26T16:02:00.071Z,1.35
2018-01-26T16:04:27.672Z,1.20
2018-01-26T16:06:55.222Z,1.15
2018-01-26T16:09:22.811Z,1.04
2018-01-26T16:11:50.365Z,1.04
2018-01-26T16:14:17.911Z,0.99
2018-01-26T16:16:45.638Z,0.92
2018-01-26T16:19:13.214Z,0.82
2018-01-26T16:21:40.759Z,0.65
2018-01-26T16:24:08.588Z,0.61
2018-01-26T16:26:36.140Z,0.56
2018-01-26T16:29:03.726Z,0.51
2018-01-26T16:31:31.436Z,0.38
2018-01-26T16:33:59.017Z,0.35
2018-01-26T16:36:26.564Z,0.31
2018-01-26T16:38:54.125Z,0.29
2018-01-26T16:41:22.092Z,0.31
2018-01-26T16:43:49.651Z,0.23
2018-01-26T16:46:17.261Z,0.22
2018-01-26T16:48:44.804Z,0.16
2018-01-26T16:51:12.613Z,0.06
2018-01-26T16:53:40.220Z,-0.01
2018-01-26T16:56:07.779Z,-0.11
2018-01-26T16:58:35.344Z,-0.19
2018-01-26T17:01:02.938Z,-0.27
2018-01-26T17:03:30.598Z,-0.27
2018-01-26T17:05:58.132Z,-0.32
2018-01-26T17:08:25.695Z,-0.47
2018-01-26T17:10:53.247Z,-0.61
2018-01-26T17:13:20.916Z,-0.70
2018-01-26T17:15:48.493Z,-0.75
2018-01-26T17:18:16.055Z,-0.76
2018-01-26T17:20:43.607Z,-0.85
2018-01-26T17:23:11.582Z,-0.85
2018-01-26T17:25:39.336Z,-0.87
2018-01-26T17:28:07.037Z,-0.93
2018-01-26T17:30:34.671Z,-0.88
2018-01-26T17:33:02.233Z,-0.90
2018-01-26T17:35:30.020Z,-0.96
2018-01-26T17:37:57.664Z,-1.00
2018-01-26T17:40:25.242Z,-1.05
2018-01-26T17:42:52.799Z,-0.99
2018-01-26T17:45:20.414Z,-1.06
2018-01-26T17:47:48.019Z,-1.14
2018-01-26T17:50:15.568Z,-1.08
2018-01-26T17:52:43.167Z,-0.99
2018-01-26T17:55:10.816Z,-0.96
2018-01-26T17:57:38.954Z,-0.92
2018-01-26T18:00:06.725Z,-0.84
2018-01-26T18:02:34.542Z,-0.81
2018-01-26T18:05:02.112Z,-0.82
2018-01-26T18:07:29.866Z,-0.80
2018-01-26T18:09:57.476Z,-0.88
2018-01-26T18:12:26.603Z,-0.98
2018-01-26T18:14:54.575Z,-1.07
2018-01-26T18:17:22.382Z,-1.14
2018-01-26T18:19:50.058Z,-1.23
2018-01-26T18:22:17.620Z,-1.18
2018-01-26T18:24:45.926Z,-1.15
2018-01-26T18:27:13.493Z,-1.27
2018-01-26T18:29:41.201Z,-1.26
2018-01-26T18:32:08.768Z,-1.28
2018-01-26T18:34:36.356Z,-1.19
2018-01-26T18:37:03.956Z,-1.14
2018-01-26T18:39:32.098Z,-1.08
2018-01-26T18:41:59.701Z,-0.96
2018-01-26T18:44:27.340Z,-0.86
2018-01-26T18:46:54.938Z,-0.74
2018-01-26T18:49:22.735Z,-0.64
2018-01-26T18:51:50.412Z,-0.57
2018-01-26T18:54:18.165Z,-0.50
2018-01-26T18:56:45.812Z,-0.41
2018-01-26T18:59:13.529Z,-0.29
2018-01-26T19:01:42.020Z,-0.29
2018-01-26T19:04:09.603Z,-0.30
2018-01-26T19:06:37.179Z,-0.30
2018-01-26T19:09:05.136Z,-0.32
2018-01-26T19:11:32.903Z,-0.33
2018-01-26T19:14:01.195Z,-0.50
2018-01-26T19:16:29.071Z,-0.67
2018-01-26T19:18:57.122Z,-0.82
2018-01-26T19:21:24.998Z,-0.93
2018-01-26T19:23:52.936Z,-0.99
2018-01-26T19:26:20.545Z,-1.06
2018-01-26T19:28:48.132Z,-1.07
2018-01-26T19:31:15.691Z,-1.12
2018-01-26T19:33:43.986Z,-1.15
2018-01-26T19:36:11.612Z,-1.31
2018-01-26T19:38:39.185Z,-1.36
2018-01-26T19:41:06.796Z,-1.43
2018-01-26T19:43:34.390Z,-1.51
2018-01-26T19:46:01.969Z,-1.57
2018-01-26T19:48:29.553Z,-1.55
2018-01-26T19:50:57.111Z,-1.55
2018-01-26T19:53:24.685Z,-1.58
2018-01-26T19:55:52.234Z,-1.60
2018-01-26T19:58:19.824Z,-1.65
2018-01-26T20:00:47.390Z,-1.70
2018-01-26T20:03:26.574Z,-1.72
2018-01-26T20:05:59.808Z,-1.73
2018-01-26T20:08:33.065Z,-1.71
2018-01-26T20:11:00.920Z,-1.70
2018-01-26T20:13:28.774Z,-1.63
2018-01-26T20:16:00.879Z,-1.53
2018-01-26T20:18:28.455Z,-1.43
2018-01-26T20:20:55.981Z,-1.34
2018-01-26T20:23:23.721Z,-1.28
2018-01-26T20:25:51.313Z,-1.20
2018-01-26T20:28:18.901Z,-1.08
2018-01-26T20:30:46.489Z,-0.92
2018-01-26T20:33:14.358Z,-0.78
2018-01-26T20:35:41.978Z,-0.61
2018-01-26T20:38:10.458Z,-0.41
2018-01-26T20:40:38.026Z,-0.30
2018-01-26T20:43:05.686Z,-0.29
2018-01-26T20:45:33.645Z,-0.28
2018-01-26T20:48:01.242Z,-0.34
2018-01-26T20:50:29.624Z,-0.37
2018-01-26T20:52:57.254Z,-0.24
2018-01-26T20:55:24.961Z,-0.07
2018-01-26T20:57:52.545Z,-0.08
2018-01-26T21:00:20.253Z,-0.19
2018-01-26T21:02:47.886Z,-0.13
2018-01-26T21:05:15.790Z,-0.05
2018-01-26T21:07:43.348Z,-0.01
2018-01-26T21:10:10.966Z,0.01
2018-01-26T21:12:38.577Z,-0.05
2018-01-26T21:15:06.557Z,0.05
2018-01-26T21:17:34.185Z,0.07
2018-01-26T21:20:01.795Z,0.11
2018-01-26T21:22:29.840Z,0.14
2018-01-26T21:24:57.447Z,0.14
2018-01-26T21:27:25.099Z,0.08
2018-01-26T21:29:52.691Z,0.15
2018-01-26T21:32:20.966Z,0.24
2018-01-26T21:34:48.652Z,0.21
2018-01-26T21:37:16.248Z,0.10
2018-01-26T21:39:43.819Z,0.17
2018-01-26T21:42:11.522Z,0.33
2018-01-26T21:44:39.087Z,0.46
2018-01-26T21:47:07.217Z,0.53
2018-01-26T21:49:35.565Z,0.65
2018-01-26T21:52:03.137Z,0.44
2018-01-26T21:54:30.737Z,0.35
2018-01-26T21:56:58.479Z,0.30
2018-01-26T21:59:26.045Z,0.25
2018-01-26T22:01:53.622Z,0.28
2018-01-26T22:04:21.285Z,0.46
2018-01-26T22:06:54.427Z,0.59
2018-01-26T22:09:22.027Z,0.71
2018-01-26T22:11:49.617Z,0.76
2018-01-26T22:14:17.183Z,0.84
2018-01-26T22:16:44.780Z,0.67
2018-01-26T22:19:12.677Z,0.73
2018-01-26T22:21:40.229Z,0.80
2018-01-26T22:24:07.960Z,0.77
2018-01-26T22:26:35.542Z,0.80
2018-01-26T22:29:03.126Z,0.79
2018-01-26T22:31:30.722Z,0.85
2018-01-26T22:33:58.338Z,0.97
2018-01-26T22:36:25.901Z,0.85
2018-01-26T22:38:53.522Z,0.77
2018-01-26T22:41:22.219Z,0.81
2018-01-26T22:43:49.987Z,0.78
2018-01-26T22:46:17.599Z,0.56
2018-01-26T22:48:45.189Z,0.39
2018-01-26T22:51:12.760Z,0.27
2018-01-26T22:53:40.350Z,0.40
2018-01-26T22:56:08.020Z,0.38
2018-01-26T22:58:35.619Z,0.51
2018-01-26T23:01:03.225Z,0.59
2018-01-26T23:03:30.825Z,0.44
2018-01-26T23:05:58.410Z,0.40
2018-01-26T23:08:29.568Z,0.39
2018-01-26T23:14:39.004Z,0.19
2018-01-26T23:17:07.626Z,0.17
2018-01-26T23:19:35.445Z,0.16
2018-01-26T23:22:03.096Z,0.23
2018-01-26T23:24:31.969Z,0.35
2018-01-26T23:26:59.526Z,0.37
2018-01-26T23:29:27.086Z,0.45
2018-01-26T23:31:57.708Z,0.45
2018-01-26T23:34:25.294Z,0.32
2018-01-26T23:36:52.896Z,0.29
2018-01-26T23:39:20.609Z,0.35
2018-01-26T23:41:48.213Z,0.34
2018-01-26T23:44:17.743Z,0.33
2018-01-26T23:46:45.474Z,0.30
2018-01-26T23:49:14.033Z,0.38
2018-01-26T23:51:41.695Z,0.54
2018-01-26T23:54:12.353Z,0.54
2018-01-26T23:56:42.646Z,0.44
2018-01-26T23:59:10.250Z,0.41
